sensor_id;sensor_type;location;lat;lon;timestamp;P1;durP1;ratioP1;P2;durP2;ratioP2
20445;SDS011;10382;49.140;9.234;2023-04-09T00:01:00;20.30;;;10.43;;
20445;SDS011;10382;49.140;9.234;2023-04-09T00:03:28;24.27;;;12.00;;
20445;SDS011;10382;49.140;9.234;2023-04-09T00:05:55;26.43;;;11.73;;
20445;SDS011;10382;49.140;9.234;2023-04-09T00:08:22;16.20;;;9.20;;
20445;SDS011;10382;49.140;9.234;2023-04-09T00:10:50;21.13;;;11.53;;
20445;SDS011;10382;49.140;9.234;2023-04-09T00:13:17;17.73;;;10.70;;
20445;SDS011;10382;49.140;9.234;2023-04-09T00:15:45;26.03;;;11.53;;
20445;SDS011;10382;49.140;9.234;2023-04-09T00:18:12;19.30;;;9.97;;
20445;SDS011;10382;49.140;9.234;2023-04-09T00:20:39;26.30;;;13.50;;
20445;SDS011;10382;49.140;9.234;2023-04-09T00:23:06;21.93;;;11.00;;
20445;SDS011;10382;49.140;9.234;2023-04-09T00:25:33;19.83;;;10.30;;
20445;SDS011;10382;49.140;9.234;2023-04-09T00:28:01;18.33;;;9.77;;
20445;SDS011;10382;49.140;9.234;2023-04-09T00:30:28;24.10;;;10.53;;
20445;SDS011;10382;49.140;9.234;2023-04-09T00:32:55;20.23;;;11.17;;
20445;SDS011;10382;49.140;9.234;2023-04-09T00:35:22;22.63;;;11.77;;
20445;SDS011;10382;49.140;9.234;2023-04-09T00:37:50;21.73;;;11.00;;
20445;SDS011;10382;49.140;9.234;2023-04-09T00:40:16;15.37;;;8.87;;
20445;SDS011;10382;49.140;9.234;2023-04-09T00:42:43;19.27;;;10.50;;
20445;SDS011;10382;49.140;9.234;2023-04-09T00:45:12;20.47;;;10.50;;
20445;SDS011;10382;49.140;9.234;2023-04-09T00:47:39;19.00;;;9.20;;
20445;SDS011;10382;49.140;9.234;2023-04-09T00:50:07;20.33;;;9.57;;
20445;SDS011;10382;49.140;9.234;2023-04-09T00:52:35;15.47;;;8.80;;
20445;SDS011;10382;49.140;9.234;2023-04-09T00:55:02;22.27;;;11.13;;
20445;SDS011;10382;49.140;9.234;2023-04-09T00:57:31;15.33;;;8.80;;
20445;SDS011;10382;49.140;9.234;2023-04-09T00:59:57;19.80;;;9.87;;
20445;SDS011;10382;49.140;9.234;2023-04-09T01:02:26;17.80;;;9.20;;
20445;SDS011;10382;49.140;9.234;2023-04-09T01:04:54;24.47;;;11.50;;
20445;SDS011;10382;49.140;9.234;2023-04-09T01:07:23;21.37;;;10.20;;
20445;SDS011;10382;49.140;9.234;2023-04-09T01:10:04;18.60;;;10.10;;
20445;SDS011;10382;49.140;9.234;2023-04-09T01:12:41;20.57;;;10.33;;
20445;SDS011;10382;49.140;9.234;2023-04-09T01:15:20;21.10;;;10.73;;
20445;SDS011;10382;49.140;9.234;2023-04-09T01:17:54;20.87;;;11.23;;
20445;SDS011;10382;49.140;9.234;2023-04-09T01:20:28;25.67;;;11.13;;
20445;SDS011;10382;49.140;9.234;2023-04-09T01:23:00;32.07;;;14.57;;
20445;SDS011;10382;49.140;9.234;2023-04-09T01:25:36;20.83;;;11.00;;
20445;SDS011;10382;49.140;9.234;2023-04-09T01:28:18;27.03;;;13.63;;
20445;SDS011;10382;49.140;9.234;2023-04-09T01:30:47;21.30;;;12.20;;
20445;SDS011;10382;49.140;9.234;2023-04-09T01:33:15;33.40;;;14.43;;
20445;SDS011;10382;49.140;9.234;2023-04-09T01:35:45;29.97;;;12.50;;
20445;SDS011;10382;49.140;9.234;2023-04-09T01:38:12;27.48;;;13.45;;
20445;SDS011;10382;49.140;9.234;2023-04-09T01:40:41;26.63;;;12.87;;
20445;SDS011;10382;49.140;9.234;2023-04-09T01:43:09;31.23;;;14.70;;
20445;SDS011;10382;49.140;9.234;2023-04-09T01:45:38;25.97;;;13.03;;
20445;SDS011;10382;49.140;9.234;2023-04-09T01:48:06;24.23;;;11.97;;
20445;SDS011;10382;49.140;9.234;2023-04-09T01:50:33;26.60;;;12.83;;
20445;SDS011;10382;49.140;9.234;2023-04-09T01:53:01;24.57;;;12.63;;
20445;SDS011;10382;49.140;9.234;2023-04-09T01:55:28;24.07;;;12.60;;
20445;SDS011;10382;49.140;9.234;2023-04-09T01:57:55;25.07;;;12.80;;
20445;SDS011;10382;49.140;9.234;2023-04-09T02:00:22;22.33;;;12.13;;
20445;SDS011;10382;49.140;9.234;2023-04-09T02:02:54;22.57;;;11.87;;
20445;SDS011;10382;49.140;9.234;2023-04-09T02:05:24;25.20;;;13.07;;
20445;SDS011;10382;49.140;9.234;2023-04-09T02:07:54;28.37;;;12.60;;
20445;SDS011;10382;49.140;9.234;2023-04-09T02:10:23;21.50;;;11.03;;
20445;SDS011;10382;49.140;9.234;2023-04-09T02:12:52;23.20;;;12.80;;
20445;SDS011;10382;49.140;9.234;2023-04-09T02:15:21;19.60;;;11.30;;
20445;SDS011;10382;49.140;9.234;2023-04-09T02:17:49;21.50;;;11.20;;
20445;SDS011;10382;49.140;9.234;2023-04-09T02:20:18;29.40;;;13.43;;
20445;SDS011;10382;49.140;9.234;2023-04-09T02:22:46;30.33;;;13.77;;
20445;SDS011;10382;49.140;9.234;2023-04-09T02:25:12;22.50;;;12.47;;
20445;SDS011;10382;49.140;9.234;2023-04-09T02:27:40;26.00;;;12.80;;
20445;SDS011;10382;49.140;9.234;2023-04-09T02:30:07;19.20;;;11.00;;
20445;SDS011;10382;49.140;9.234;2023-04-09T02:32:34;34.23;;;14.70;;
20445;SDS011;10382;49.140;9.234;2023-04-09T02:35:01;23.93;;;12.63;;
20445;SDS011;10382;49.140;9.234;2023-04-09T02:37:30;21.80;;;12.03;;
20445;SDS011;10382;49.140;9.234;2023-04-09T02:39:56;26.17;;;13.27;;
20445;SDS011;10382;49.140;9.234;2023-04-09T02:42:23;22.80;;;12.50;;
20445;SDS011;10382;49.140;9.234;2023-04-09T02:44:50;34.47;;;14.03;;
20445;SDS011;10382;49.140;9.234;2023-04-09T02:47:17;22.97;;;11.87;;
20445;SDS011;10382;49.140;9.234;2023-04-09T02:49:44;31.27;;;15.00;;
20445;SDS011;10382;49.140;9.234;2023-04-09T02:52:10;25.70;;;12.43;;
20445;SDS011;10382;49.140;9.234;2023-04-09T02:54:39;21.80;;;12.30;;
20445;SDS011;10382;49.140;9.234;2023-04-09T02:57:05;25.10;;;13.30;;
20445;SDS011;10382;49.140;9.234;2023-04-09T02:59:32;29.37;;;14.63;;
20445;SDS011;10382;49.140;9.234;2023-04-09T03:01:59;29.53;;;13.23;;
20445;SDS011;10382;49.140;9.234;2023-04-09T03:04:26;34.30;;;15.23;;
20445;SDS011;10382;49.140;9.234;2023-04-09T03:06:53;28.67;;;13.90;;
20445;SDS011;10382;49.140;9.234;2023-04-09T03:09:20;33.40;;;14.93;;
20445;SDS011;10382;49.140;9.234;2023-04-09T03:11:48;27.87;;;14.87;;
20445;SDS011;10382;49.140;9.234;2023-04-09T03:14:15;23.30;;;12.47;;
20445;SDS011;10382;49.140;9.234;2023-04-09T03:16:42;29.83;;;14.07;;
20445;SDS011;10382;49.140;9.234;2023-04-09T03:19:08;21.43;;;12.00;;
20445;SDS011;10382;49.140;9.234;2023-04-09T03:21:35;27.37;;;13.87;;
20445;SDS011;10382;49.140;9.234;2023-04-09T03:24:02;30.13;;;14.53;;
20445;SDS011;10382;49.140;9.234;2023-04-09T03:26:29;40.27;;;17.80;;
20445;SDS011;10382;49.140;9.234;2023-04-09T03:29:01;27.43;;;14.07;;
20445;SDS011;10382;49.140;9.234;2023-04-09T03:31:28;27.17;;;13.37;;
20445;SDS011;10382;49.140;9.234;2023-04-09T03:33:55;30.73;;;14.97;;
20445;SDS011;10382;49.140;9.234;2023-04-09T03:36:22;23.30;;;12.23;;
20445;SDS011;10382;49.140;9.234;2023-04-09T03:38:49;24.73;;;13.90;;
20445;SDS011;10382;49.140;9.234;2023-04-09T03:41:16;24.40;;;12.47;;
20445;SDS011;10382;49.140;9.234;2023-04-09T03:43:43;25.80;;;13.43;;
20445;SDS011;10382;49.140;9.234;2023-04-09T03:46:11;30.50;;;15.10;;
20445;SDS011;10382;49.140;9.234;2023-04-09T03:48:39;25.07;;;13.23;;
20445;SDS011;10382;49.140;9.234;2023-04-09T03:51:07;27.30;;;14.13;;
20445;SDS011;10382;49.140;9.234;2023-04-09T03:53:36;32.43;;;15.50;;
20445;SDS011;10382;49.140;9.234;2023-04-09T03:56:03;29.20;;;13.03;;
20445;SDS011;10382;49.140;9.234;2023-04-09T03:58:31;21.83;;;12.07;;
20445;SDS011;10382;49.140;9.234;2023-04-09T04:00:57;30.20;;;15.10;;
20445;SDS011;10382;49.140;9.234;2023-04-09T04:03:26;37.17;;;13.60;;
20445;SDS011;10382;49.140;9.234;2023-04-09T04:05:53;21.87;;;12.77;;
20445;SDS011;10382;49.140;9.234;2023-04-09T04:08:24;21.00;;;12.57;;
20445;SDS011;10382;49.140;9.234;2023-04-09T04:10:51;32.40;;;15.30;;
20445;SDS011;10382;49.140;9.234;2023-04-09T04:13:18;32.40;;;15.80;;
20445;SDS011;10382;49.140;9.234;2023-04-09T04:15:45;28.30;;;14.97;;
20445;SDS011;10382;49.140;9.234;2023-04-09T04:18:12;23.30;;;12.80;;
20445;SDS011;10382;49.140;9.234;2023-04-09T04:20:40;27.77;;;14.00;;
20445;SDS011;10382;49.140;9.234;2023-04-09T04:23:07;29.57;;;15.20;;
20445;SDS011;10382;49.140;9.234;2023-04-09T04:25:34;34.40;;;16.33;;
20445;SDS011;10382;49.140;9.234;2023-04-09T04:28:01;27.17;;;14.17;;
20445;SDS011;10382;49.140;9.234;2023-04-09T04:30:28;36.17;;;16.97;;
20445;SDS011;10382;49.140;9.234;2023-04-09T04:32:54;34.63;;;16.53;;
20445;SDS011;10382;49.140;9.234;2023-04-09T04:35:21;30.97;;;16.13;;
20445;SDS011;10382;49.140;9.234;2023-04-09T04:37:49;33.37;;;17.77;;
20445;SDS011;10382;49.140;9.234;2023-04-09T04:40:16;31.57;;;15.63;;
20445;SDS011;10382;49.140;9.234;2023-04-09T04:42:43;36.43;;;17.40;;
20445;SDS011;10382;49.140;9.234;2023-04-09T04:45:10;26.87;;;13.90;;
20445;SDS011;10382;49.140;9.234;2023-04-09T04:47:37;24.57;;;12.07;;
20445;SDS011;10382;49.140;9.234;2023-04-09T04:50:04;24.80;;;12.97;;
20445;SDS011;10382;49.140;9.234;2023-04-09T04:52:32;26.53;;;14.53;;
20445;SDS011;10382;49.140;9.234;2023-04-09T04:55:00;33.30;;;15.80;;
20445;SDS011;10382;49.140;9.234;2023-04-09T04:57:27;28.67;;;15.20;;
20445;SDS011;10382;49.140;9.234;2023-04-09T04:59:54;35.77;;;16.47;;
20445;SDS011;10382;49.140;9.234;2023-04-09T05:02:21;32.40;;;16.80;;
20445;SDS011;10382;49.140;9.234;2023-04-09T05:04:47;42.77;;;18.90;;
20445;SDS011;10382;49.140;9.234;2023-04-09T05:07:14;35.17;;;16.97;;
20445;SDS011;10382;49.140;9.234;2023-04-09T05:09:41;32.40;;;15.50;;
20445;SDS011;10382;49.140;9.234;2023-04-09T05:12:09;29.70;;;15.57;;
20445;SDS011;10382;49.140;9.234;2023-04-09T05:14:36;36.03;;;17.10;;
20445;SDS011;10382;49.140;9.234;2023-04-09T05:17:03;39.80;;;19.13;;
20445;SDS011;10382;49.140;9.234;2023-04-09T05:19:30;38.33;;;17.93;;
20445;SDS011;10382;49.140;9.234;2023-04-09T05:21:57;37.70;;;17.90;;
20445;SDS011;10382;49.140;9.234;2023-04-09T05:24:24;27.20;;;16.37;;
20445;SDS011;10382;49.140;9.234;2023-04-09T05:26:51;34.53;;;16.80;;
20445;SDS011;10382;49.140;9.234;2023-04-09T05:29:19;30.10;;;15.03;;
20445;SDS011;10382;49.140;9.234;2023-04-09T05:31:46;41.70;;;20.03;;
20445;SDS011;10382;49.140;9.234;2023-04-09T05:34:12;31.40;;;17.43;;
20445;SDS011;10382;49.140;9.234;2023-04-09T05:36:39;29.80;;;16.40;;
20445;SDS011;10382;49.140;9.234;2023-04-09T05:39:06;30.83;;;16.93;;
20445;SDS011;10382;49.140;9.234;2023-04-09T05:41:33;36.87;;;18.13;;
20445;SDS011;10382;49.140;9.234;2023-04-09T05:44:01;31.00;;;17.20;;
20445;SDS011;10382;49.140;9.234;2023-04-09T05:46:29;33.30;;;18.10;;
20445;SDS011;10382;49.140;9.234;2023-04-09T05:48:56;30.97;;;17.70;;
20445;SDS011;10382;49.140;9.234;2023-04-09T05:51:23;32.37;;;18.50;;
20445;SDS011;10382;49.140;9.234;2023-04-09T05:53:50;35.43;;;17.93;;
20445;SDS011;10382;49.140;9.234;2023-04-09T05:56:17;30.47;;;16.70;;
20445;SDS011;10382;49.140;9.234;2023-04-09T05:58:46;29.40;;;15.27;;
20445;SDS011;10382;49.140;9.234;2023-04-09T06:01:13;30.00;;;16.90;;
20445;SDS011;10382;49.140;9.234;2023-04-09T06:03:41;33.53;;;16.57;;
20445;SDS011;10382;49.140;9.234;2023-04-09T06:06:08;34.87;;;18.30;;
20445;SDS011;10382;49.140;9.234;2023-04-09T06:08:35;34.13;;;17.70;;
20445;SDS011;10382;49.140;9.234;2023-04-09T06:11:02;37.53;;;20.10;;
20445;SDS011;10382;49.140;9.234;2023-04-09T06:13:31;34.23;;;18.07;;
20445;SDS011;10382;49.140;9.234;2023-04-09T06:15:58;32.53;;;16.70;;
20445;SDS011;10382;49.140;9.234;2023-04-09T06:18:25;32.57;;;17.10;;
20445;SDS011;10382;49.140;9.234;2023-04-09T06:21:01;29.87;;;16.23;;
20445;SDS011;10382;49.140;9.234;2023-04-09T06:23:28;33.53;;;18.87;;
20445;SDS011;10382;49.140;9.234;2023-04-09T06:25:55;29.30;;;17.33;;
20445;SDS011;10382;49.140;9.234;2023-04-09T06:28:21;34.67;;;18.60;;
20445;SDS011;10382;49.140;9.234;2023-04-09T06:30:48;27.57;;;16.17;;
20445;SDS011;10382;49.140;9.234;2023-04-09T06:33:17;31.70;;;17.60;;
20445;SDS011;10382;49.140;9.234;2023-04-09T06:35:44;34.07;;;17.13;;
20445;SDS011;10382;49.140;9.234;2023-04-09T06:38:12;32.67;;;18.10;;
20445;SDS011;10382;49.140;9.234;2023-04-09T06:40:39;31.53;;;17.07;;
20445;SDS011;10382;49.140;9.234;2023-04-09T06:43:06;34.27;;;17.43;;
20445;SDS011;10382;49.140;9.234;2023-04-09T06:45:33;34.43;;;18.50;;
20445;SDS011;10382;49.140;9.234;2023-04-09T06:48:01;38.47;;;18.23;;
20445;SDS011;10382;49.140;9.234;2023-04-09T06:50:29;35.47;;;18.37;;
20445;SDS011;10382;49.140;9.234;2023-04-09T06:52:56;37.50;;;20.03;;
20445;SDS011;10382;49.140;9.234;2023-04-09T06:55:24;26.07;;;15.13;;
20445;SDS011;10382;49.140;9.234;2023-04-09T06:57:51;30.93;;;17.90;;
20445;SDS011;10382;49.140;9.234;2023-04-09T07:00:18;32.20;;;17.80;;
20445;SDS011;10382;49.140;9.234;2023-04-09T07:02:47;30.10;;;18.13;;
20445;SDS011;10382;49.140;9.234;2023-04-09T07:05:14;22.90;;;15.07;;
20445;SDS011;10382;49.140;9.234;2023-04-09T07:07:40;27.67;;;17.60;;
20445;SDS011;10382;49.140;9.234;2023-04-09T07:10:07;22.30;;;15.30;;
20445;SDS011;10382;49.140;9.234;2023-04-09T07:12:36;27.33;;;17.27;;
20445;SDS011;10382;49.140;9.234;2023-04-09T07:15:03;24.57;;;16.23;;
20445;SDS011;10382;49.140;9.234;2023-04-09T07:17:31;29.47;;;17.77;;
20445;SDS011;10382;49.140;9.234;2023-04-09T07:19:59;32.20;;;19.77;;
20445;SDS011;10382;49.140;9.234;2023-04-09T07:22:27;34.27;;;18.53;;
20445;SDS011;10382;49.140;9.234;2023-04-09T07:24:54;34.67;;;19.43;;
20445;SDS011;10382;49.140;9.234;2023-04-09T07:27:21;31.07;;;17.20;;
20445;SDS011;10382;49.140;9.234;2023-04-09T07:29:50;35.07;;;19.70;;
20445;SDS011;10382;49.140;9.234;2023-04-09T07:32:20;33.37;;;17.10;;
20445;SDS011;10382;49.140;9.234;2023-04-09T07:34:47;32.73;;;17.73;;
20445;SDS011;10382;49.140;9.234;2023-04-09T07:37:16;30.67;;;16.50;;
20445;SDS011;10382;49.140;9.234;2023-04-09T07:39:43;32.43;;;16.60;;
20445;SDS011;10382;49.140;9.234;2023-04-09T07:42:10;23.53;;;14.70;;
20445;SDS011;10382;49.140;9.234;2023-04-09T07:44:37;27.30;;;16.10;;
20445;SDS011;10382;49.140;9.234;2023-04-09T07:47:06;25.77;;;15.10;;
20445;SDS011;10382;49.140;9.234;2023-04-09T07:49:34;32.17;;;16.73;;
20445;SDS011;10382;49.140;9.234;2023-04-09T07:52:02;38.57;;;18.33;;
20445;SDS011;10382;49.140;9.234;2023-04-09T07:56:59;41.60;;;17.20;;
20445;SDS011;10382;49.140;9.234;2023-04-09T07:59:26;45.17;;;19.07;;
20445;SDS011;10382;49.140;9.234;2023-04-09T08:01:53;54.20;;;18.67;;
20445;SDS011;10382;49.140;9.234;2023-04-09T08:04:21;40.27;;;16.80;;
20445;SDS011;10382;49.140;9.234;2023-04-09T08:06:48;40.20;;;15.47;;
20445;SDS011;10382;49.140;9.234;2023-04-09T08:09:15;38.70;;;17.53;;
20445;SDS011;10382;49.140;9.234;2023-04-09T08:11:42;32.67;;;13.87;;
20445;SDS011;10382;49.140;9.234;2023-04-09T08:14:11;37.10;;;13.90;;
20445;SDS011;10382;49.140;9.234;2023-04-09T08:16:38;37.07;;;16.17;;
20445;SDS011;10382;49.140;9.234;2023-04-09T08:19:06;42.17;;;16.03;;
20445;SDS011;10382;49.140;9.234;2023-04-09T08:21:35;46.30;;;17.50;;
20445;SDS011;10382;49.140;9.234;2023-04-09T08:24:03;63.97;;;23.13;;
20445;SDS011;10382;49.140;9.234;2023-04-09T08:26:31;42.27;;;16.30;;
20445;SDS011;10382;49.140;9.234;2023-04-09T08:28:57;40.20;;;17.50;;
20445;SDS011;10382;49.140;9.234;2023-04-09T08:31:24;48.37;;;17.10;;
20445;SDS011;10382;49.140;9.234;2023-04-09T08:33:51;34.23;;;13.53;;
20445;SDS011;10382;49.140;9.234;2023-04-09T08:36:18;44.57;;;15.60;;
20445;SDS011;10382;49.140;9.234;2023-04-09T08:38:46;34.73;;;13.93;;
20445;SDS011;10382;49.140;9.234;2023-04-09T08:41:17;45.10;;;14.97;;
20445;SDS011;10382;49.140;9.234;2023-04-09T08:43:45;35.30;;;12.47;;
20445;SDS011;10382;49.140;9.234;2023-04-09T08:46:13;29.50;;;10.97;;
20445;SDS011;10382;49.140;9.234;2023-04-09T08:48:41;37.17;;;13.33;;
20445;SDS011;10382;49.140;9.234;2023-04-09T08:51:11;30.07;;;11.07;;
20445;SDS011;10382;49.140;9.234;2023-04-09T08:53:39;30.97;;;12.20;;
20445;SDS011;10382;49.140;9.234;2023-04-09T08:56:10;26.77;;;11.20;;
20445;SDS011;10382;49.140;9.234;2023-04-09T08:58:39;28.30;;;11.30;;
20445;SDS011;10382;49.140;9.234;2023-04-09T09:01:17;32.00;;;12.70;;
20445;SDS011;10382;49.140;9.234;2023-04-09T09:03:54;23.93;;;10.33;;
20445;SDS011;10382;49.140;9.234;2023-04-09T09:06:23;26.63;;;11.23;;
20445;SDS011;10382;49.140;9.234;2023-04-09T09:09:00;28.00;;;12.00;;
20445;SDS011;10382;49.140;9.234;2023-04-09T09:11:30;29.87;;;12.70;;
20445;SDS011;10382;49.140;9.234;2023-04-09T09:13:57;26.77;;;12.27;;
20445;SDS011;10382;49.140;9.234;2023-04-09T09:16:25;23.70;;;10.17;;
20445;SDS011;10382;49.140;9.234;2023-04-09T09:18:52;27.70;;;11.37;;
20445;SDS011;10382;49.140;9.234;2023-04-09T09:21:21;29.03;;;11.70;;
20445;SDS011;10382;49.140;9.234;2023-04-09T09:23:48;28.10;;;10.77;;
20445;SDS011;10382;49.140;9.234;2023-04-09T09:26:16;30.90;;;11.63;;
20445;SDS011;10382;49.140;9.234;2023-04-09T09:28:46;28.27;;;10.83;;
20445;SDS011;10382;49.140;9.234;2023-04-09T09:31:14;24.93;;;10.43;;
20445;SDS011;10382;49.140;9.234;2023-04-09T09:33:41;34.10;;;12.77;;
20445;SDS011;10382;49.140;9.234;2023-04-09T09:36:08;25.13;;;10.67;;
20445;SDS011;10382;49.140;9.234;2023-04-09T09:38:51;28.60;;;11.10;;
20445;SDS011;10382;49.140;9.234;2023-04-09T09:41:19;27.47;;;11.00;;
20445;SDS011;10382;49.140;9.234;2023-04-09T09:43:48;51.60;;;16.13;;
20445;SDS011;10382;49.140;9.234;2023-04-09T09:46:15;27.13;;;11.20;;
20445;SDS011;10382;49.140;9.234;2023-04-09T09:48:42;24.50;;;10.77;;
20445;SDS011;10382;49.140;9.234;2023-04-09T09:51:11;29.07;;;10.80;;
20445;SDS011;10382;49.140;9.234;2023-04-09T09:53:39;33.60;;;11.13;;
20445;SDS011;10382;49.140;9.234;2023-04-09T09:56:12;34.33;;;10.97;;
20445;SDS011;10382;49.140;9.234;2023-04-09T09:58:41;32.47;;;11.23;;
20445;SDS011;10382;49.140;9.234;2023-04-09T10:01:13;26.20;;;10.27;;
20445;SDS011;10382;49.140;9.234;2023-04-09T10:03:44;33.70;;;12.67;;
20445;SDS011;10382;49.140;9.234;2023-04-09T10:06:12;28.07;;;11.63;;
20445;SDS011;10382;49.140;9.234;2023-04-09T10:08:39;24.67;;;8.20;;
20445;SDS011;10382;49.140;9.234;2023-04-09T10:11:08;40.00;;;11.50;;
20445;SDS011;10382;49.140;9.234;2023-04-09T10:13:36;21.07;;;7.00;;
20445;SDS011;10382;49.140;9.234;2023-04-09T10:16:05;25.23;;;7.87;;
20445;SDS011;10382;49.140;9.234;2023-04-09T10:18:35;23.87;;;7.33;;
20445;SDS011;10382;49.140;9.234;2023-04-09T10:21:02;32.33;;;8.20;;
20445;SDS011;10382;49.140;9.234;2023-04-09T10:23:37;30.83;;;7.00;;
20445;SDS011;10382;49.140;9.234;2023-04-09T10:26:05;29.77;;;7.77;;
20445;SDS011;10382;49.140;9.234;2023-04-09T10:28:32;44.73;;;10.40;;
20445;SDS011;10382;49.140;9.234;2023-04-09T10:31:02;22.00;;;6.53;;
20445;SDS011;10382;49.140;9.234;2023-04-09T10:33:30;22.30;;;6.53;;
20445;SDS011;10382;49.140;9.234;2023-04-09T10:35:59;26.13;;;8.03;;
20445;SDS011;10382;49.140;9.234;2023-04-09T10:38:33;22.57;;;7.27;;
20445;SDS011;10382;49.140;9.234;2023-04-09T10:41:08;47.30;;;13.33;;
20445;SDS011;10382;49.140;9.234;2023-04-09T10:43:39;36.93;;;11.17;;
20445;SDS011;10382;49.140;9.234;2023-04-09T10:46:06;22.60;;;7.73;;
20445;SDS011;10382;49.140;9.234;2023-04-09T10:51:37;31.83;;;9.40;;
20445;SDS011;10382;49.140;9.234;2023-04-09T10:54:04;27.77;;;9.83;;
20445;SDS011;10382;49.140;9.234;2023-04-09T10:56:31;28.40;;;9.87;;
20445;SDS011;10382;49.140;9.234;2023-04-09T10:58:59;46.30;;;12.83;;
20445;SDS011;10382;49.140;9.234;2023-04-09T11:01:25;39.50;;;11.33;;
20445;SDS011;10382;49.140;9.234;2023-04-09T11:04:06;40.63;;;11.20;;
20445;SDS011;10382;49.140;9.234;2023-04-09T11:06:34;24.57;;;8.13;;
20445;SDS011;10382;49.140;9.234;2023-04-09T11:09:05;35.10;;;9.53;;
20445;SDS011;10382;49.140;9.234;2023-04-09T11:11:32;30.23;;;9.23;;
20445;SDS011;10382;49.140;9.234;2023-04-09T11:14:00;36.30;;;10.73;;
20445;SDS011;10382;49.140;9.234;2023-04-09T11:16:28;41.13;;;12.37;;
20445;SDS011;10382;49.140;9.234;2023-04-09T11:18:55;31.90;;;10.50;;
20445;SDS011;10382;49.140;9.234;2023-04-09T11:21:25;30.27;;;9.07;;
20445;SDS011;10382;49.140;9.234;2023-04-09T11:23:54;25.37;;;7.80;;
20445;SDS011;10382;49.140;9.234;2023-04-09T11:26:24;27.17;;;9.07;;
20445;SDS011;10382;49.140;9.234;2023-04-09T11:29:03;35.83;;;11.10;;
20445;SDS011;10382;49.140;9.234;2023-04-09T11:31:31;28.60;;;9.20;;
20445;SDS011;10382;49.140;9.234;2023-04-09T11:33:58;42.63;;;11.90;;
20445;SDS011;10382;49.140;9.234;2023-04-09T11:36:24;45.20;;;12.90;;
20445;SDS011;10382;49.140;9.234;2023-04-09T11:38:53;23.37;;;7.90;;
20445;SDS011;10382;49.140;9.234;2023-04-09T11:41:31;23.07;;;7.70;;
20445;SDS011;10382;49.140;9.234;2023-04-09T11:44:00;25.93;;;8.13;;
20445;SDS011;10382;49.140;9.234;2023-04-09T11:46:28;22.43;;;7.17;;
20445;SDS011;10382;49.140;9.234;2023-04-09T11:48:55;25.73;;;7.60;;
20445;SDS011;10382;49.140;9.234;2023-04-09T11:51:22;35.30;;;10.10;;
20445;SDS011;10382;49.140;9.234;2023-04-09T11:53:51;29.77;;;8.83;;
20445;SDS011;10382;49.140;9.234;2023-04-09T11:56:19;30.80;;;9.03;;
20445;SDS011;10382;49.140;9.234;2023-04-09T11:58:46;31.97;;;8.90;;
20445;SDS011;10382;49.140;9.234;2023-04-09T12:01:14;23.73;;;6.90;;
20445;SDS011;10382;49.140;9.234;2023-04-09T12:03:41;39.80;;;11.03;;
20445;SDS011;10382;49.140;9.234;2023-04-09T12:06:08;18.17;;;6.23;;
20445;SDS011;10382;49.140;9.234;2023-04-09T12:08:35;27.77;;;8.87;;
20445;SDS011;10382;49.140;9.234;2023-04-09T12:11:08;32.73;;;9.73;;
20445;SDS011;10382;49.140;9.234;2023-04-09T12:13:37;22.30;;;7.17;;
20445;SDS011;10382;49.140;9.234;2023-04-09T12:16:07;23.33;;;7.97;;
20445;SDS011;10382;49.140;9.234;2023-04-09T12:18:34;24.57;;;7.73;;
20445;SDS011;10382;49.140;9.234;2023-04-09T12:21:02;29.30;;;9.40;;
20445;SDS011;10382;49.140;9.234;2023-04-09T12:23:30;20.37;;;7.93;;
20445;SDS011;10382;49.140;9.234;2023-04-09T12:25:57;25.80;;;8.40;;
20445;SDS011;10382;49.140;9.234;2023-04-09T12:28:25;30.63;;;9.27;;
20445;SDS011;10382;49.140;9.234;2023-04-09T12:30:53;24.57;;;7.67;;
20445;SDS011;10382;49.140;9.234;2023-04-09T12:33:22;24.10;;;8.03;;
20445;SDS011;10382;49.140;9.234;2023-04-09T12:35:50;28.33;;;8.77;;
20445;SDS011;10382;49.140;9.234;2023-04-09T12:38:17;24.10;;;8.00;;
20445;SDS011;10382;49.140;9.234;2023-04-09T12:40:43;32.50;;;9.80;;
20445;SDS011;10382;49.140;9.234;2023-04-09T12:43:10;31.33;;;9.13;;
20445;SDS011;10382;49.140;9.234;2023-04-09T12:45:37;24.20;;;7.20;;
20445;SDS011;10382;49.140;9.234;2023-04-09T12:48:05;29.20;;;8.57;;
20445;SDS011;10382;49.140;9.234;2023-04-09T12:50:32;38.40;;;10.30;;
20445;SDS011;10382;49.140;9.234;2023-04-09T12:52:59;36.00;;;9.20;;
20445;SDS011;10382;49.140;9.234;2023-04-09T12:55:26;22.37;;;7.67;;
20445;SDS011;10382;49.140;9.234;2023-04-09T12:57:53;18.03;;;6.27;;
20445;SDS011;10382;49.140;9.234;2023-04-09T13:00:20;32.30;;;9.93;;
20445;SDS011;10382;49.140;9.234;2023-04-09T13:02:46;35.07;;;10.03;;
20445;SDS011;10382;49.140;9.234;2023-04-09T13:05:15;29.23;;;8.23;;
20445;SDS011;10382;49.140;9.234;2023-04-09T13:07:42;31.60;;;9.70;;
20445;SDS011;10382;49.140;9.234;2023-04-09T13:10:09;39.00;;;11.13;;
20445;SDS011;10382;49.140;9.234;2023-04-09T13:12:36;37.77;;;10.20;;
20445;SDS011;10382;49.140;9.234;2023-04-09T13:15:03;30.73;;;8.47;;
20445;SDS011;10382;49.140;9.234;2023-04-09T13:17:30;46.70;;;12.23;;
20445;SDS011;10382;49.140;9.234;2023-04-09T13:19:57;26.10;;;7.70;;
20445;SDS011;10382;49.140;9.234;2023-04-09T13:22:26;24.13;;;7.10;;
20445;SDS011;10382;49.140;9.234;2023-04-09T13:24:53;37.37;;;10.20;;
20445;SDS011;10382;49.140;9.234;2023-04-09T13:27:20;40.33;;;11.23;;
20445;SDS011;10382;49.140;9.234;2023-04-09T13:29:47;32.20;;;7.80;;
20445;SDS011;10382;49.140;9.234;2023-04-09T13:32:14;31.60;;;9.13;;
20445;SDS011;10382;49.140;9.234;2023-04-09T13:34:42;42.60;;;11.73;;
20445;SDS011;10382;49.140;9.234;2023-04-09T13:37:09;22.50;;;7.20;;
20445;SDS011;10382;49.140;9.234;2023-04-09T13:39:37;38.57;;;9.90;;
20445;SDS011;10382;49.140;9.234;2023-04-09T13:42:04;18.70;;;5.80;;
20445;SDS011;10382;49.140;9.234;2023-04-09T13:44:30;34.07;;;9.73;;
20445;SDS011;10382;49.140;9.234;2023-04-09T13:46:57;24.10;;;7.17;;
20445;SDS011;10382;49.140;9.234;2023-04-09T13:49:24;21.10;;;6.40;;
20445;SDS011;10382;49.140;9.234;2023-04-09T13:51:52;40.37;;;10.70;;
20445;SDS011;10382;49.140;9.234;2023-04-09T13:54:19;22.83;;;7.17;;
20445;SDS011;10382;49.140;9.234;2023-04-09T13:56:47;30.00;;;10.20;;
20445;SDS011;10382;49.140;9.234;2023-04-09T13:59:15;26.43;;;8.27;;
20445;SDS011;10382;49.140;9.234;2023-04-09T14:01:42;24.33;;;8.43;;
20445;SDS011;10382;49.140;9.234;2023-04-09T14:04:08;27.27;;;7.90;;
20445;SDS011;10382;49.140;9.234;2023-04-09T14:06:35;27.30;;;7.77;;
20445;SDS011;10382;49.140;9.234;2023-04-09T14:09:02;30.37;;;8.43;;
20445;SDS011;10382;49.140;9.234;2023-04-09T14:11:29;43.60;;;10.83;;
20445;SDS011;10382;49.140;9.234;2023-04-09T14:13:57;33.60;;;9.23;;
20445;SDS011;10382;49.140;9.234;2023-04-09T14:16:24;35.23;;;9.60;;
20445;SDS011;10382;49.140;9.234;2023-04-09T14:18:52;30.63;;;8.93;;
20445;SDS011;10382;49.140;9.234;2023-04-09T14:21:19;22.90;;;6.37;;
20445;SDS011;10382;49.140;9.234;2023-04-09T14:23:45;41.90;;;11.10;;
20445;SDS011;10382;49.140;9.234;2023-04-09T14:26:12;29.23;;;7.97;;
20445;SDS011;10382;49.140;9.234;2023-04-09T14:28:40;36.17;;;10.17;;
20445;SDS011;10382;49.140;9.234;2023-04-09T14:31:08;31.97;;;9.50;;
20445;SDS011;10382;49.140;9.234;2023-04-09T14:33:35;27.50;;;8.37;;
20445;SDS011;10382;49.140;9.234;2023-04-09T14:36:02;22.77;;;7.37;;